Time;durP1;ratioP1;P1;durP2;ratioP2;P2;SDS_P1;SDS_P2;PMS_P1;PMS_P2;Temp;Humidity;BMP_temperature;BMP_pressure;BME280_temperature;BME280_humidity;BME280_pressure;Samples;Min_cycle;Max_cycle;Signal;HPM_P1;HPM_P2
2021/01/17 00:01:52;;;;;;;18.53;16.73;;;-1.00;99.90;;;;;;4915033;29;20844;-76
2021/01/17 00:04:19;;;;;;;16.57;15.17;;;-1.00;99.90;;;;;;4914986;29;20544;-75
2021/01/17 00:06:45;;;;;;;21.20;19.07;;;-0.90;99.90;;;;;;4915171;29;20477;-78
2021/01/17 00:09:11;;;;;;;17.13;15.60;;;-0.90;99.90;;;;;;4915115;29;20826;-78
2021/01/17 00:11:37;;;;;;;17.07;15.37;;;-0.90;99.90;;;;;;4915066;29;20908;-78
2021/01/17 00:14:04;;;;;;;16.67;15.17;;;-0.90;99.90;;;;;;4914904;29;20474;-78
2021/01/17 00:16:31;;;;;;;18.23;16.30;;;-0.90;99.90;;;;;;4914813;29;20461;-80
2021/01/17 00:18:57;;;;;;;18.50;16.73;;;-0.90;99.90;;;;;;4914814;29;20467;-77
2021/01/17 00:21:24;;;;;;;17.73;15.97;;;-1.00;99.90;;;;;;4915025;29;20454;-79
2021/01/17 00:23:50;;;;;;;20.43;18.37;;;-0.90;99.90;;;;;;4914701;29;20514;-79
2021/01/17 00:26:16;;;;;;;21.27;18.97;;;-0.90;99.90;;;;;;4914892;29;20458;-80
2021/01/17 00:28:42;;;;;;;20.70;18.67;;;-0.90;99.90;;;;;;4914817;29;20458;-77
2021/01/17 00:31:08;;;;;;;21.10;18.60;;;-0.90;99.90;;;;;;4914389;29;20487;-77
2021/01/17 00:33:35;;;;;;;22.53;20.23;;;-0.90;99.90;;;;;;4914223;29;20692;-78
2021/01/17 00:36:01;;;;;;;22.30;18.50;;;-0.90;99.90;;;;;;4914425;29;20447;-78
2021/01/17 00:38:29;;;;;;;19.07;17.17;;;-0.80;99.90;;;;;;4914410;29;20466;-78
2021/01/17 00:40:55;;;;;;;22.80;19.80;;;-0.80;99.90;;;;;;4914488;29;20459;-78
2021/01/17 00:43:21;;;;;;;20.93;18.70;;;-0.60;99.90;;;;;;4914051;29;20962;-78
2021/01/17 00:45:47;;;;;;;24.53;21.90;;;-0.50;99.90;;;;;;4914388;29;20451;-77
2021/01/17 00:48:14;;;;;;;26.00;22.53;;;-0.50;99.90;;;;;;4914507;29;20452;-76
2021/01/17 00:50:40;;;;;;;22.90;20.57;;;-0.50;99.90;;;;;;4914334;29;20455;-76
2021/01/17 00:53:06;;;;;;;20.60;18.40;;;-0.50;99.90;;;;;;4913929;29;20502;-76
2021/01/17 00:55:33;;;;;;;22.13;19.47;;;-0.50;99.90;;;;;;4913812;29;20952;-76
2021/01/17 00:57:59;;;;;;;20.97;18.93;;;-0.50;99.90;;;;;;4913775;29;20451;-75
2021/01/17 01:00:25;;;;;;;21.97;19.67;;;-0.60;99.90;;;;;;4914381;29;20454;-75
2021/01/17 01:02:51;;;;;;;23.23;20.73;;;-0.60;99.90;;;;;;4914076;29;20463;-76
2021/01/17 01:05:18;;;;;;;21.40;19.33;;;-0.60;99.90;;;;;;4914019;29;20463;-77
2021/01/17 01:07:44;;;;;;;22.80;20.33;;;-0.70;99.90;;;;;;4914244;29;20834;-76
2021/01/17 01:10:11;;;;;;;22.90;20.20;;;-0.60;99.90;;;;;;4914448;29;20485;-75
2021/01/17 01:12:38;;;;;;;25.13;22.43;;;-0.50;99.90;;;;;;4913885;29;20490;-76
2021/01/17 04:49:36;;;;;;;30.47;24.90;;;-0.60;99.90;;;;;;5478111;23;20880;-74
2021/01/17 04:52:03;;;;;;;28.67;25.10;;;-0.60;99.90;;;;;;4906339;29;20841;-75
2021/01/17 04:54:29;;;;;;;30.03;26.80;;;-0.50;99.90;;;;;;4894479;29;20459;-75
2021/01/17 04:57:00;;;;;;;26.87;23.70;;;-0.60;99.90;;;;;;4894527;29;20451;-74
2021/01/17 04:59:34;;;;;;;35.07;25.77;;;-0.50;99.90;;;;;;4894227;29;20474;-74
2021/01/17 05:02:27;;;;;;;29.77;25.97;;;-0.50;99.90;;;;;;4894562;29;20462;-75
2021/01/17 05:05:22;;;;;;;30.50;25.47;;;-0.60;99.90;;;;;;4891807;29;20966;-74
2021/01/17 05:07:51;;;;;;;28.73;24.30;;;-0.60;99.90;;;;;;4894611;29;20459;-75
2021/01/17 05:10:45;;;;;;;30.57;25.80;;;-0.30;99.90;;;;;;4894626;29;20518;-75
2021/01/17 05:13:12;;;;;;;25.63;23.17;;;-0.50;99.90;;;;;;4894302;29;20487;-75
2021/01/17 05:15:40;;;;;;;33.43;26.53;;;-0.50;99.90;;;;;;4894232;29;20586;-74
2021/01/17 05:18:08;;;;;;;33.00;24.47;;;-0.60;99.90;;;;;;4894354;29;20459;-73
2021/01/17 05:20:35;;;;;;;31.33;25.40;;;-0.60;99.90;;;;;;4894429;29;20465;-74
2021/01/17 05:23:07;;;;;;;28.70;24.60;;;-0.50;99.90;;;;;;4894513;29;20474;-74
2021/01/17 05:25:33;;;;;;;28.17;24.27;;;-0.50;99.90;;;;;;4894415;29;20459;-75
2021/01/17 05:28:00;;;;;;;33.17;27.80;;;-0.50;99.90;;;;;;4894231;29;20515;-76
2021/01/17 05:30:26;;;;;;;32.70;26.77;;;-0.50;99.90;;;;;;4894163;29;20522;-75
2021/01/17 05:32:54;;;;;;;28.00;25.00;;;-0.40;99.90;;;;;;4893839;29;20499;-75
2021/01/17 05:35:22;;;;;;;31.20;27.00;;;-0.40;99.90;;;;;;4894033;29;20466;-74
2021/01/17 05:37:51;;;;;;;30.50;24.23;;;-0.40;99.90;;;;;;4894077;29;20953;-75
2021/01/17 05:40:18;;;;;;;32.03;27.00;;;-0.50;99.90;;;;;;4894450;29;20470;-76
2021/01/17 05:42:45;;;;;;;32.03;24.80;;;-0.40;99.90;;;;;;4895118;29;20469;-75
2021/01/17 05:45:14;;;;;;;27.27;23.67;;;-0.40;99.90;;;;;;4897677;29;20582;-75
2021/01/17 05:47:40;;;;;;;28.20;25.40;;;-0.40;99.90;;;;;;4897620;29;20499;-75
2021/01/17 05:50:08;;;;;;;29.23;26.10;;;-0.40;99.90;;;;;;4897272;29;20505;-76
2021/01/17 05:52:35;;;;;;;31.63;26.60;;;-0.30;99.90;;;;;;4897747;29;20524;-74
2021/01/17 05:55:04;;;;;;;36.57;29.10;;;-0.30;99.90;;;;;;4897825;29;20922;-74
2021/01/17 05:57:32;;;;;;;31.40;25.10;;;-0.30;99.90;;;;;;4898053;29;20454;-75
2021/01/17 06:00:00;;;;;;;30.27;26.63;;;-0.30;99.90;;;;;;4897728;29;20463;-75
2021/01/17 06:02:26;;;;;;;29.00;25.90;;;-0.30;99.90;;;;;;4897439;29;20489;-75
2021/01/17 06:04:55;;;;;;;28.10;25.17;;;-0.30;99.90;;;;;;4897342;29;20464;-75
2021/01/17 06:07:23;;;;;;;32.80;27.73;;;-0.20;99.90;;;;;;4897377;29;20463;-77
2021/01/17 06:09:57;;;;;;;35.20;28.97;;;-0.30;99.90;;;;;;4897427;29;20456;-76
2021/01/17 06:12:31;;;;;;;32.00;27.57;;;-0.30;99.90;;;;;;4897518;29;20680;-75
2021/01/17 06:15:02;;;;;;;32.77;26.33;;;-0.20;99.90;;;;;;4897701;29;20524;-75
2021/01/17 06:17:32;;;;;;;31.97;28.60;;;-0.30;99.90;;;;;;4897377;29;20454;-75
2021/01/17 06:20:00;;;;;;;30.63;25.33;;;-0.30;99.90;;;;;;4897185;29;20554;-75
2021/01/17 06:22:28;;;;;;;33.30;27.10;;;-0.30;99.90;;;;;;4897005;29;20462;-76
2021/01/17 06:24:59;;;;;;;29.97;26.73;;;-0.30;99.90;;;;;;4897066;29;20551;-75
2021/01/17 06:27:27;;;;;;;29.90;26.87;;;-0.30;99.90;;;;;;4897158;29;20463;-75
2021/01/17 06:29:55;;;;;;;31.17;26.00;;;-0.30;99.90;;;;;;4897285;29;20519;-77
2021/01/17 06:32:23;;;;;;;28.93;25.10;;;-0.40;99.90;;;;;;4896986;29;20495;-76
2021/01/17 06:34:51;;;;;;;30.40;26.03;;;-0.40;99.90;;;;;;4896941;29;20465;-75
2021/01/17 06:37:18;;;;;;;30.60;26.80;;;-0.40;99.90;;;;;;4897467;29;20455;-76
2021/01/17 06:39:48;;;;;;;40.63;26.77;;;-0.40;99.90;;;;;;4897090;29;20462;-75
2021/01/17 06:42:16;;;;;;;32.27;26.40;;;-0.40;99.90;;;;;;4896847;29;20450;-75
2021/01/17 06:44:44;;;;;;;35.47;29.20;;;-0.30;99.90;;;;;;4896800;29;20510;-75
2021/01/17 06:47:19;;;;;;;29.50;25.50;;;-0.40;99.90;;;;;;4896854;29;20452;-75
2021/01/17 06:49:47;;;;;;;31.00;27.50;;;-0.40;99.90;;;;;;4896679;29;20494;-77
2021/01/17 06:52:14;;;;;;;34.70;29.60;;;-0.40;99.90;;;;;;4896774;29;20997;-74
2021/01/17 06:54:42;;;;;;;26.80;24.30;;;-0.40;99.90;;;;;;4896849;29;20518;-75
2021/01/17 06:57:09;;;;;;;37.30;28.43;;;-0.40;99.90;;;;;;4896554;29;21047;-75
2021/01/17 06:59:37;;;;;;;33.90;27.57;;;-0.50;99.90;;;;;;4896717;29;20464;-76
2021/01/17 07:02:37;;;;;;;32.63;27.87;;;-0.40;99.90;;;;;;4896662;29;20546;-75
2021/01/17 07:05:43;;;;;;;31.20;27.60;;;-0.40;99.90;;;;;;4896476;29;20611;-76
2021/01/17 07:08:41;;;;;;;28.80;25.80;;;-0.40;99.90;;;;;;4896385;29;20456;-75
2021/01/17 07:11:20;;;;;;;33.20;28.97;;;-0.30;99.90;;;;;;4896378;29;20494;-77
2021/01/17 07:13:49;;;;;;;35.03;27.13;;;-0.30;99.90;;;;;;4896704;29;20491;-76
2021/01/17 07:16:31;;;;;;;29.83;26.70;;;-0.30;99.90;;;;;;4896588;29;20973;-76
2021/01/17 07:19:03;;;;;;;36.27;28.60;;;-0.20;99.90;;;;;;4896117;29;20464;-76
2021/01/17 07:21:35;;;;;;;34.00;29.30;;;-0.30;99.90;;;;;;4896170;29;20957;-74
2021/01/17 07:24:04;;;;;;;32.97;26.73;;;-0.30;99.90;;;;;;4896695;29;20538;-76
2021/01/17 07:26:40;;;;;;;36.87;31.40;;;-0.30;99.90;;;;;;4896792;29;20464;-75
2021/01/17 07:29:08;;;;;;;35.73;30.10;;;-0.20;99.90;;;;;;4896011;29;20452;-75
2021/01/17 07:31:37;;;;;;;32.03;27.93;;;-0.10;99.90;;;;;;4895932;29;20460;-75
2021/01/17 07:34:11;;;;;;;34.50;27.73;;;-0.10;99.90;;;;;;4896109;29;21032;-75
2021/01/17 07:36:39;;;;;;;37.90;30.57;;;-0.10;99.90;;;;;;4896013;29;20554;-74
2021/01/17 07:39:06;;;;;;;37.77;29.50;;;-0.10;99.90;;;;;;4896201;29;20463;-74
2021/01/17 07:41:37;;;;;;;39.03;31.07;;;-0.10;99.90;;;;;;4896320;29;20558;-75
2021/01/17 07:44:03;;;;;;;35.10;29.10;;;-0.10;99.90;;;;;;4896471;29;20518;-76
2021/01/17 07:46:31;;;;;;;37.67;29.97;;;0.00;99.90;;;;;;4895914;29;20451;-76
2021/01/17 07:49:02;;;;;;;38.40;31.20;;;0.00;99.90;;;;;;4895309;29;20496;-74
2021/01/17 07:51:29;;;;;;;36.57;29.07;;;0.10;99.90;;;;;;4895657;29;21007;-75
2021/01/17 07:54:00;;;;;;;36.50;31.47;;;0.10;99.90;;;;;;4895494;29;20499;-75
2021/01/17 07:56:28;;;;;;;35.20;29.37;;;0.10;99.90;;;;;;4895434;29;20477;-75
2021/01/17 07:58:59;;;;;;;33.10;27.70;;;0.10;99.90;;;;;;4895280;29;21063;-75
2021/01/17 08:01:45;;;;;;;30.53;27.27;;;0.20;99.90;;;;;;4895489;29;20456;-76
2021/01/17 08:04:27;;;;;;;32.77;26.57;;;0.10;99.90;;;;;;4895101;29;20838;-76
2021/01/17 08:06:57;;;;;;;41.20;30.40;;;0.10;99.90;;;;;;4894834;29;20473;-76
2021/01/17 08:09:43;;;;;;;37.93;29.47;;;0.20;99.90;;;;;;4895194;29;20794;-75
2021/01/17 08:12:10;;;;;;;35.93;29.20;;;0.20;99.90;;;;;;4895020;29;20753;-76
2021/01/17 08:14:39;;;;;;;42.43;30.50;;;0.20;99.90;;;;;;4895100;29;20463;-75
2021/01/17 08:17:11;;;;;;;37.33;28.00;;;0.30;99.90;;;;;;4895226;29;20459;-76
2021/01/17 08:19:42;;;;;;;35.87;29.30;;;0.30;99.90;;;;;;4895000;29;20466;-76
2021/01/17 08:22:46;;;;;;;40.17;29.57;;;0.30;99.90;;;;;;4895138;29;20530;-75
2021/01/17 08:25:50;;;;;;;34.33;28.40;;;0.30;99.90;;;;;;4895089;29;20453;-75
2021/01/17 08:28:37;;;;;;;40.03;32.37;;;0.30;99.90;;;;;;4895295;29;20452;-75
2021/01/17 08:31:42;;;;;;;39.80;29.23;;;0.50;99.90;;;;;;4890507;29;20992;-76
2021/01/17 08:34:24;;;;;;;36.13;28.50;;;0.50;99.90;;;;;;4894766;29;20814;-76
2021/01/17 08:36:50;;;;;;;36.53;29.67;;;0.60;99.90;;;;;;4894932;29;20838;-76
2021/01/17 08:39:42;;;;;;;34.90;29.40;;;0.60;99.90;;;;;;4895167;29;20467;-76
2021/01/17 08:42:26;;;;;;;37.07;29.80;;;0.60;99.90;;;;;;4894694;29;21032;-74
2021/01/17 08:44:53;;;;;;;31.03;27.67;;;0.70;99.90;;;;;;4894516;29;20937;-74
2021/01/17 08:47:23;;;;;;;38.40;29.20;;;0.80;99.90;;;;;;4894684;29;20457;-75
2021/01/17 08:49:49;;;;;;;37.00;30.40;;;0.90;99.90;;;;;;4894561;29;20479;-77
2021/01/17 08:52:24;;;;;;;38.30;28.57;;;0.90;99.90;;;;;;4894695;29;21014;-76
2021/01/17 08:54:51;;;;;;;33.97;28.93;;;0.90;99.90;;;;;;4894349;29;20469;-74
2021/01/17 08:57:42;;;;;;;33.47;30.03;;;1.00;99.90;;;;;;4894828;29;20488;-75
2021/01/17 09:00:10;;;;;;;33.23;29.67;;;1.00;99.90;;;;;;4895130;29;20593;-77
2021/01/17 09:02:37;;;;;;;35.23;31.57;;;1.20;99.90;;;;;;4896358;29;20478;-76
2021/01/17 09:05:04;;;;;;;32.97;27.90;;;1.20;99.90;;;;;;4895800;29;20466;-77
2021/01/17 09:07:35;;;;;;;35.13;31.23;;;1.30;99.90;;;;;;4894887;29;20954;-78
2021/01/17 09:10:08;;;;;;;35.73;29.07;;;1.30;99.90;;;;;;4895983;29;20455;-80
2021/01/17 09:12:35;;;;;;;36.70;32.40;;;1.30;99.90;;;;;;4895302;29;20512;-81
2021/01/17 09:15:14;;;;;;;38.70;33.70;;;1.30;99.90;;;;;;4894997;29;20462;-78
2021/01/17 09:17:41;;;;;;;39.10;31.67;;;1.30;99.90;;;;;;4895091;29;20940;-78
2021/01/17 09:20:14;;;;;;;38.23;31.63;;;1.40;99.90;;;;;;4898703;29;20451;-77
2021/01/17 09:22:43;;;;;;;41.03;28.90;;;1.50;99.90;;;;;;4898608;29;20514;-79
2021/01/17 09:25:11;;;;;;;40.43;33.70;;;1.60;99.90;;;;;;4898276;29;20528;-78
2021/01/17 09:27:39;;;;;;;37.90;34.00;;;1.60;99.90;;;;;;4898115;29;20462;-77
2021/01/17 09:30:06;;;;;;;40.37;32.57;;;1.60;99.90;;;;;;4898237;29;20466;-78
2021/01/17 09:32:35;;;;;;;38.07;34.10;;;1.50;99.90;;;;;;4898364;29;20499;-76
2021/01/17 09:35:05;;;;;;;36.60;32.90;;;1.50;99.90;;;;;;4898384;29;20455;-78
2021/01/17 09:37:33;;;;;;;44.00;38.30;;;1.50;99.90;;;;;;4898297;29;20461;-77
2021/01/17 09:39:59;;;;;;;39.87;31.67;;;1.50;99.90;;;;;;4898087;29;20462;-78
2021/01/17 09:42:27;;;;;;;42.63;36.20;;;1.70;99.90;;;;;;4898118;29;20457;-76
2021/01/17 09:44:55;;;;;;;38.67;34.77;;;1.80;99.90;;;;;;4898209;29;20516;-76
2021/01/17 09:47:23;;;;;;;42.63;37.97;;;1.90;99.90;;;;;;4897886;29;20482;-77
2021/01/17 09:49:50;;;;;;;44.70;38.00;;;1.80;99.90;;;;;;4897936;29;20863;-78
2021/01/17 09:52:18;;;;;;;42.47;36.27;;;1.80;99.90;;;;;;4898367;29;20522;-78
2021/01/17 09:54:44;;;;;;;40.47;36.40;;;1.90;99.90;;;;;;4898272;29;20460;-79
2021/01/17 09:57:18;;;;;;;42.00;37.70;;;1.90;99.90;;;;;;4898191;29;20466;-79
2021/01/17 09:59:46;;;;;;;38.83;34.90;;;2.00;99.90;;;;;;4897973;29;20454;-79
2021/01/17 10:02:12;;;;;;;38.87;35.03;;;1.90;99.90;;;;;;4897513;29;20466;-79
2021/01/17 10:04:40;;;;;;;41.53;37.20;;;2.00;99.90;;;;;;4897819;29;20460;-82
2021/01/17 10:07:13;;;;;;;45.37;40.17;;;2.00;99.90;;;;;;4897774;29;20549;-79
2021/01/17 10:09:39;;;;;;;50.10;41.20;;;2.00;99.90;;;;;;4897452;29;20811;-82
2021/01/17 10:12:06;;;;;;;44.80;40.30;;;2.10;99.90;;;;;;4897642;29;20471;-82
2021/01/17 10:14:34;;;;;;;46.73;42.10;;;2.10;99.90;;;;;;4897844;29;20459;-78
2021/01/17 10:17:05;;;;;;;48.30;43.70;;;2.00;99.90;;;;;;4897707;29;20462;-78
2021/01/17 10:19:32;;;;;;;49.93;44.90;;;2.10;99.90;;;;;;4897620;29;20498;-78
2021/01/17 10:22:00;;;;;;;49.47;44.33;;;2.10;99.90;;;;;;4897539;29;20957;-80
2021/01/17 10:24:28;;;;;;;49.90;45.00;;;2.20;99.90;;;;;;4897275;29;20471;-82
2021/01/17 10:26:56;;;;;;;48.50;43.70;;;2.10;99.90;;;;;;4897444;29;20618;-84
2021/01/17 10:29:24;;;;;;;47.10;42.30;;;2.00;99.90;;;;;;4896793;29;20455;-80
2021/01/17 10:31:56;;;;;;;49.33;44.03;;;1.90;99.90;;;;;;4897266;29;20967;-78
2021/01/17 10:34:24;;;;;;;50.20;45.23;;;2.00;99.90;;;;;;4897093;29;20531;-78
2021/01/17 10:36:56;;;;;;;48.60;43.87;;;2.00;99.90;;;;;;4896969;29;20470;-79
2021/01/17 10:39:23;;;;;;;50.20;44.90;;;2.00;99.90;;;;;;4897281;29;20459;-80
2021/01/17 10:41:50;;;;;;;45.90;41.80;;;2.00;99.90;;;;;;4897437;29;20458;-79
2021/01/17 10:44:26;;;;;;;49.93;44.97;;;2.10;99.90;;;;;;4897259;29;20458;-78
2021/01/17 10:47:03;;;;;;;46.37;41.90;;;2.20;99.90;;;;;;4897106;29;20922;-79
2021/01/17 10:49:36;;;;;;;51.13;45.23;;;2.20;99.90;;;;;;4896734;29;20940;-78
2021/01/17 10:52:10;;;;;;;48.23;43.57;;;2.10;99.90;;;;;;4897199;29;20458;-78
2021/01/17 10:54:41;;;;;;;49.63;44.87;;;2.20;99.90;;;;;;4896748;29;20458;-79
2021/01/17 10:57:09;;;;;;;49.00;44.27;;;2.30;99.90;;;;;;4897138;29;20867;-76
2021/01/17 10:59:36;;;;;;;48.53;43.90;;;2.40;99.90;;;;;;4896667;29;21021;-76
2021/01/17 11:02:02;;;;;;;47.83;43.23;;;2.50;99.90;;;;;;4896889;29;20459;-76
2021/01/17 11:04:39;;;;;;;48.63;44.03;;;2.60;99.90;;;;;;4896585;29;20451;-75
2021/01/17 11:07:06;;;;;;;44.17;40.10;;;2.60;99.90;;;;;;4896747;29;20553;-75
2021/01/17 11:09:33;;;;;;;47.90;43.57;;;2.70;99.90;;;;;;4897030;29;20516;-75
2021/01/17 11:11:59;;;;;;;47.60;43.07;;;2.90;99.90;;;;;;4896849;29;20460;-75
2021/01/17 11:14:27;;;;;;;46.90;41.80;;;2.70;99.90;;;;;;4896051;29;20504;-75
2021/01/17 11:16:54;;;;;;;47.43;43.10;;;2.80;99.90;;;;;;4896566;29;20468;-75
2021/01/17 11:19:33;;;;;;;47.13;42.67;;;2.80;99.90;;;;;;4896389;29;20514;-74
2021/01/17 11:22:00;;;;;;;45.77;41.80;;;2.80;99.90;;;;;;4896539;29;21060;-74
2021/01/17 11:24:33;;;;;;;47.70;43.10;;;3.10;99.90;;;;;;4896626;29;20455;-75
2021/01/17 11:27:10;;;;;;;46.40;42.17;;;3.20;99.90;;;;;;4896186;29;21124;-74
2021/01/17 11:29:37;;;;;;;45.00;41.03;;;3.40;99.90;;;;;;4896474;29;20459;-74
2021/01/17 11:32:03;;;;;;;47.40;42.90;;;3.40;99.90;;;;;;4896415;29;20470;-74
2021/01/17 11:34:34;;;;;;;43.90;39.93;;;3.50;99.90;;;;;;4896194;29;20503;-74
2021/01/17 11:37:01;;;;;;;45.97;41.60;;;3.60;99.90;;;;;;4895970;29;20559;-74
2021/01/17 11:39:27;;;;;;;48.87;44.20;;;3.60;99.90;;;;;;4896128;29;20864;-75
2021/01/17 11:41:55;;;;;;;45.10;40.57;;;3.60;99.90;;;;;;4895262;29;20969;-75
2021/01/17 11:44:23;;;;;;;43.67;39.93;;;3.60;99.90;;;;;;4895920;29;20459;-75
2021/01/17 11:46:50;;;;;;;42.10;38.07;;;3.60;99.90;;;;;;4896094;29;20481;-74
2021/01/17 11:49:22;;;;;;;43.10;38.53;;;3.50;99.90;;;;;;4895547;29;20490;-74
2021/01/17 11:51:48;;;;;;;40.77;37.10;;;3.50;99.90;;;;;;4896180;29;20445;-75
2021/01/17 11:54:18;;;;;;;44.60;40.20;;;3.40;99.90;;;;;;4895835;29;20496;-75
2021/01/17 11:56:44;;;;;;;44.60;39.80;;;3.40;99.90;;;;;;4895941;29;20459;-75
2021/01/17 11:59:24;;;;;;;43.60;39.30;;;3.20;99.90;;;;;;4895584;29;20515;-77
2021/01/17 12:01:50;;;;;;;43.97;39.77;;;3.20;99.90;;;;;;4895718;29;20463;-76
2021/01/17 12:04:27;;;;;;;43.23;38.77;;;3.30;99.90;;;;;;4895786;29;20450;-75
2021/01/17 12:07:04;;;;;;;40.90;36.57;;;3.30;99.90;;;;;;4895399;29;20566;-74
2021/01/17 12:09:31;;;;;;;43.20;39.00;;;3.20;99.90;;;;;;4895547;29;20876;-74
2021/01/17 12:11:58;;;;;;;46.13;41.23;;;3.10;99.90;;;;;;4895408;29;20461;-75
2021/01/17 12:14:27;;;;;;;43.60;39.00;;;3.20;99.90;;;;;;4895411;29;20495;-75
2021/01/17 12:16:55;;;;;;;45.03;41.03;;;3.20;99.90;;;;;;4895089;29;20467;-75
2021/01/17 12:19:23;;;;;;;43.90;38.97;;;3.20;99.90;;;;;;4895598;29;20463;-75
2021/01/17 12:21:53;;;;;;;42.30;38.60;;;3.20;99.90;;;;;;4895528;29;20820;-75
2021/01/17 12:24:20;;;;;;;43.10;38.70;;;3.30;99.90;;;;;;4895454;29;20447;-75
2021/01/17 12:26:48;;;;;;;43.50;39.13;;;3.20;99.90;;;;;;4895190;29;20911;-74
2021/01/17 12:29:16;;;;;;;45.37;40.67;;;3.30;99.90;;;;;;4895374;29;20447;-74
2021/01/17 12:31:43;;;;;;;44.33;40.30;;;3.30;99.90;;;;;;4895145;29;20924;-75
2021/01/17 12:34:10;;;;;;;42.20;38.00;;;3.40;99.90;;;;;;4894839;29;20864;-75
2021/01/17 12:36:39;;;;;;;41.93;38.13;;;3.30;99.90;;;;;;4894647;29;20880;-75
2021/01/17 12:39:07;;;;;;;43.77;39.13;;;3.40;99.90;;;;;;4895180;29;20861;-75
2021/01/17 12:41:35;;;;;;;44.33;40.00;;;3.30;99.90;;;;;;4895123;29;20474;-75
2021/01/17 12:44:04;;;;;;;41.63;37.40;;;3.10;99.90;;;;;;4895210;29;20474;-75
2021/01/17 12:46:30;;;;;;;50.30;41.20;;;3.00;99.90;;;;;;4894659;29;20477;-76
2021/01/17 12:48:57;;;;;;;42.30;37.80;;;3.20;99.90;;;;;;4894609;29;20491;-76
2021/01/17 12:51:23;;;;;;;43.13;38.90;;;3.20;99.90;;;;;;4894868;29;20558;-77
2021/01/17 12:53:51;;;;;;;40.87;36.87;;;3.30;99.90;;;;;;4894876;29;20490;-76
2021/01/17 12:56:19;;;;;;;42.83;38.50;;;3.40;99.90;;;;;;4894988;29;20459;-75
2021/01/17 12:58:46;;;;;;;41.27;37.23;;;3.50;99.90;;;;;;4895454;29;20466;-84
2021/01/17 13:01:15;;;;;;;40.17;36.03;;;3.50;99.90;;;;;;4894963;29;20480;-71
2021/01/17 13:03:42;;;;;;;38.17;34.43;;;3.40;99.90;;;;;;4894652;29;20815;-77
2021/01/17 13:06:09;;;;;;;39.87;35.27;;;3.40;99.90;;;;;;4894485;29;21152;-77
2021/01/17 13:08:37;;;;;;;39.67;35.90;;;3.30;99.90;;;;;;4893497;29;20463;-77
2021/01/17 13:11:04;;;;;;;38.80;35.10;;;3.40;99.90;;;;;;4893247;29;20460;-78
2021/01/17 13:13:30;;;;;;;39.40;35.60;;;3.40;99.90;;;;;;4894816;29;21014;-78
2021/01/17 13:15:59;;;;;;;39.27;34.97;;;3.40;99.90;;;;;;4896543;29;20451;-77
2021/01/17 13:18:26;;;;;;;42.90;38.27;;;3.40;99.90;;;;;;4916889;29;20512;-78
2021/01/17 13:20:52;;;;;;;37.03;33.70;;;3.40;99.90;;;;;;4905390;29;20458;-78
2021/01/17 13:23:19;;;;;;;38.87;35.07;;;3.30;99.90;;;;;;4896076;29;20469;-78
2021/01/17 13:25:46;;;;;;;42.20;37.87;;;3.20;99.90;;;;;;4895297;29;20463;-77
2021/01/17 13:28:13;;;;;;;38.87;35.27;;;3.30;99.90;;;;;;4894582;29;20455;-77
2021/01/17 13:30:41;;;;;;;38.30;34.53;;;3.30;99.90;;;;;;4894063;29;20467;-76
2021/01/17 13:33:12;;;;;;;41.70;37.23;;;3.20;99.90;;;;;;4894160;29;20536;-77
2021/01/17 13:35:40;;;;;;;39.53;35.63;;;3.20;99.90;;;;;;4894119;29;20448;-77
2021/01/17 13:38:07;;;;;;;40.90;36.80;;;3.10;99.90;;;;;;4894586;29;20555;-79
2021/01/17 13:40:33;;;;;;;39.40;35.90;;;3.10;99.90;;;;;;4894470;29;20504;-79
2021/01/17 13:43:00;;;;;;;40.87;37.00;;;3.00;99.90;;;;;;4894094;29;20876;-80
2021/01/17 13:45:29;;;;;;;39.77;36.20;;;3.10;99.90;;;;;;4894101;29;20454;-77
2021/01/17 13:47:55;;;;;;;41.67;37.57;;;3.20;99.90;;;;;;4892682;29;20738;-80
2021/01/17 13:50:22;;;;;;;44.43;40.30;;;3.10;99.90;;;;;;4893792;29;20841;-79
2021/01/17 13:52:49;;;;;;;40.10;36.57;;;3.10;99.90;;;;;;4894306;29;20566;-78
2021/01/17 13:55:16;;;;;;;45.73;41.00;;;3.10;99.90;;;;;;4894312;29;20529;-80
2021/01/17 13:57:43;;;;;;;44.63;40.70;;;3.10;99.90;;;;;;4893551;29;20532;-79
2021/01/17 14:00:12;;;;;;;48.77;43.90;;;2.90;99.90;;;;;;4894315;29;20463;-76
2021/01/17 14:02:39;;;;;;;47.13;42.53;;;2.90;99.90;;;;;;4894192;29;20880;-79
2021/01/17 14:05:06;;;;;;;48.17;43.23;;;3.00;99.90;;;;;;4897104;29;20553;-79
2021/01/17 14:07:33;;;;;;;43.87;39.73;;;2.90;99.90;;;;;;4899184;29;20458;-79
2021/01/17 14:10:00;;;;;;;45.93;41.30;;;2.90;99.90;;;;;;4898137;29;20481;-79
2021/01/17 14:12:26;;;;;;;44.20;39.90;;;3.00;99.90;;;;;;4897959;29;20522;-79
2021/01/17 14:14:55;;;;;;;48.20;43.40;;;2.90;99.90;;;;;;4897637;29;20526;-80
2021/01/17 14:17:22;;;;;;;44.57;40.03;;;2.90;99.90;;;;;;4897376;29;20467;-80
2021/01/17 14:19:48;;;;;;;46.27;41.67;;;2.80;99.90;;;;;;4897595;29;20466;-79
2021/01/17 14:22:15;;;;;;;46.20;41.73;;;2.80;99.90;;;;;;4897700;29;20976;-79
2021/01/17 14:24:41;;;;;;;47.03;42.53;;;2.80;99.90;;;;;;4897476;29;20471;-78
2021/01/17 14:27:10;;;;;;;49.00;43.80;;;2.90;99.90;;;;;;4897309;29;20466;-77
2021/01/17 14:29:36;;;;;;;46.07;41.30;;;2.90;99.90;;;;;;4897194;29;20451;-77
2021/01/17 14:32:03;;;;;;;48.77;43.97;;;2.90;99.90;;;;;;4897252;29;20455;-79
2021/01/17 14:34:30;;;;;;;49.33;44.33;;;2.70;99.90;;;;;;4897102;29;20501;-79
2021/01/17 14:36:56;;;;;;;46.30;41.57;;;2.80;99.90;;;;;;4897076;29;20459;-79
2021/01/17 14:39:25;;;;;;;44.93;40.63;;;2.80;99.90;;;;;;4896868;29;20505;-78
2021/01/17 14:41:53;;;;;;;45.40;41.17;;;2.80;99.90;;;;;;4896857;29;20451;-79
2021/01/17 14:44:20;;;;;;;44.30;40.10;;;2.80;99.90;;;;;;4896971;29;20826;-79
2021/01/17 14:46:48;;;;;;;44.33;40.13;;;2.80;99.90;;;;;;4897243;29;20463;-78
2021/01/17 14:49:16;;;;;;;46.10;41.30;;;2.80;99.90;;;;;;4896797;29;20851;-79
2021/01/17 14:51:43;;;;;;;42.93;38.60;;;2.90;99.90;;;;;;4896522;29;20512;-78
2021/01/17 14:54:10;;;;;;;42.23;38.23;;;2.90;99.90;;;;;;4896344;29;20564;-79
2021/01/17 14:56:37;;;;;;;38.83;35.20;;;2.90;99.90;;;;;;4896662;29;20820;-79
2021/01/17 14:59:04;;;;;;;40.87;37.27;;;2.80;99.90;;;;;;4897002;29;20447;-80
2021/01/17 15:01:32;;;;;;;43.47;38.97;;;2.70;99.90;;;;;;4896848;29;20905;-80
2021/01/17 15:03:58;;;;;;;42.57;38.37;;;2.70;99.90;;;;;;4896558;29;20455;-80
2021/01/17 15:06:24;;;;;;;44.47;39.63;;;2.80;99.90;;;;;;4896395;29;20788;-80
2021/01/17 15:08:51;;;;;;;44.80;40.10;;;2.70;99.90;;;;;;4896778;29;20459;-81
2021/01/17 15:11:20;;;;;;;43.37;38.77;;;2.70;99.90;;;;;;4896519;29;20792;-81
2021/01/17 15:13:47;;;;;;;40.60;36.40;;;2.70;99.90;;;;;;4896890;29;20501;-82
2021/01/17 15:16:16;;;;;;;42.90;38.60;;;2.70;99.90;;;;;;4895559;29;20468;-79
2021/01/17 15:18:44;;;;;;;45.90;41.27;;;2.70;99.90;;;;;;4895900;29;20459;-79
2021/01/17 15:21:10;;;;;;;44.97;40.50;;;2.70;99.90;;;;;;4896133;29;20467;-78
2021/01/17 15:23:36;;;;;;;45.17;40.40;;;2.60;99.90;;;;;;4896389;29;20882;-79
2021/01/17 15:26:06;;;;;;;44.00;39.40;;;2.60;99.90;;;;;;4896612;29;20467;-78
2021/01/17 15:28:32;;;;;;;42.27;38.17;;;2.60;99.90;;;;;;4896724;29;20519;-78
2021/01/17 15:30:59;;;;;;;41.60;37.70;;;2.60;99.90;;;;;;4896508;29;20466;-78
2021/01/17 15:33:28;;;;;;;42.33;38.23;;;2.60;99.90;;;;;;4895222;29;20494;-78
2021/01/17 15:35:55;;;;;;;41.80;37.93;;;2.60;99.90;;;;;;4895594;29;20547;-78
2021/01/17 15:38:22;;;;;;;44.33;39.93;;;2.60;99.90;;;;;;4896403;29;20450;-78
2021/01/17 15:40:48;;;;;;;44.20;39.47;;;2.60;99.90;;;;;;4896515;29;20469;-78
2021/01/17 15:43:15;;;;;;;43.07;38.43;;;2.60;99.90;;;;;;4896285;29;20451;-77
2021/01/17 15:45:41;;;;;;;42.97;38.80;;;2.40;99.90;;;;;;4896109;29;20470;-77
2021/01/17 15:48:08;;;;;;;43.90;39.53;;;2.50;99.90;;;;;;4896065;29;20546;-77
2021/01/17 15:50:34;;;;;;;45.23;40.57;;;2.60;99.90;;;;;;4895675;29;21005;-77
2021/01/17 15:53:01;;;;;;;43.10;38.50;;;2.60;99.90;;;;;;4896037;29;20529;-77
2021/01/17 15:55:28;;;;;;;42.13;37.97;;;2.60;99.90;;;;;;4895594;29;20502;-76
2021/01/17 15:57:54;;;;;;;44.47;39.87;;;2.60;99.90;;;;;;4895791;29;20515;-76
2021/01/17 16:00:20;;;;;;;55.00;42.63;;;2.60;99.90;;;;;;4895157;29;20477;-77
2021/01/17 16:02:47;;;;;;;45.47;40.50;;;2.60;99.90;;;;;;4895903;29;20457;-77
2021/01/17 16:05:14;;;;;;;42.77;38.67;;;2.60;99.90;;;;;;4895216;29;20956;-76
2021/01/17 16:07:42;;;;;;;45.67;40.30;;;2.50;99.90;;;;;;4895463;29;20459;-77
2021/01/17 16:10:10;;;;;;;44.40;39.80;;;2.40;99.90;;;;;;4895232;29;20884;-77
2021/01/17 16:12:36;;;;;;;46.70;41.93;;;2.50;99.90;;;;;;4895566;29;20468;-77
2021/01/17 16:15:03;;;;;;;44.00;39.40;;;2.40;99.90;;;;;;4895642;29;20494;-76
2021/01/17 16:17:29;;;;;;;45.43;40.60;;;2.50;99.90;;;;;;4895259;29;20459;-76
2021/01/17 16:19:55;;;;;;;47.17;41.50;;;2.50;99.90;;;;;;4895392;29;20490;-76